Time;durP1;ratioP1;P1;durP2;ratioP2;P2;SDS_P1;SDS_P2;PMS_P1;PMS_P2;Temp;Humidity;BMP_temperature;BMP_pressure;BME280_temperature;BME280_humidity;BME280_pressure;Samples;Min_cycle;Max_cycle;Signal;HPM_P1;HPM_P2
2021/10/30 00:00:31;;;;;;;14.47;12.67;;;6.20;99.90;;;;;;6263325;22;20393;-87
2021/10/30 00:02:57;;;;;;;16.30;12.37;;;6.20;99.90;;;;;;6262439;22;20158;-86
2021/10/30 00:05:22;;;;;;;15.07;12.13;;;6.10;99.90;;;;;;6265674;22;20423;-85
2021/10/30 00:07:48;;;;;;;13.03;10.93;;;6.10;99.90;;;;;;6267121;22;20269;-85
2021/10/30 00:10:16;;;;;;;14.73;11.63;;;6.00;99.90;;;;;;6263389;22;20192;-86
2021/10/30 00:12:42;;;;;;;13.93;12.00;;;6.00;99.90;;;;;;6263233;22;20842;-86
2021/10/30 00:15:09;;;;;;;14.73;12.67;;;6.00;99.90;;;;;;6263414;22;20459;-86
2021/10/30 00:17:35;;;;;;;13.23;11.33;;;5.90;99.90;;;;;;6262094;22;20495;-86
2021/10/30 00:20:02;;;;;;;13.77;10.97;;;5.90;99.90;;;;;;6257120;22;20401;-86
2021/10/30 00:22:30;;;;;;;13.70;11.53;;;5.80;99.90;;;;;;6261502;22;20397;-86
2021/10/30 00:24:57;;;;;;;14.67;11.53;;;5.60;99.90;;;;;;6260158;22;20393;-86
2021/10/30 00:27:23;;;;;;;13.37;11.47;;;5.40;99.90;;;;;;6235771;22;20925;-85
2021/10/30 00:29:49;;;;;;;12.90;10.87;;;5.40;99.90;;;;;;6262571;22;20513;-85
2021/10/30 00:32:19;;;;;;;13.93;10.63;;;5.30;99.90;;;;;;6263560;22;20385;-85
2021/10/30 00:34:45;;;;;;;12.63;11.33;;;5.20;99.90;;;;;;6261678;22;20818;-86
2021/10/30 00:37:11;;;;;;;14.07;12.07;;;5.10;99.90;;;;;;6260030;22;20644;-86
2021/10/30 00:39:38;;;;;;;13.37;11.77;;;5.00;99.90;;;;;;6262600;22;20162;-86
2021/10/30 00:42:05;;;;;;;15.60;12.33;;;4.90;99.90;;;;;;6263822;22;20245;-85
2021/10/30 00:44:33;;;;;;;12.80;11.50;;;4.90;99.90;;;;;;6259885;22;21001;-85
2021/10/30 00:47:01;;;;;;;15.10;12.40;;;4.80;99.90;;;;;;6260571;22;20393;-85
2021/10/30 00:49:28;;;;;;;12.60;11.10;;;4.90;99.90;;;;;;6262171;22;20518;-85
2021/10/30 00:51:56;;;;;;;16.17;12.93;;;4.80;99.90;;;;;;6260332;22;20403;-85
2021/10/30 00:54:24;;;;;;;13.40;11.20;;;4.80;99.90;;;;;;6261776;22;20413;-85
2021/10/30 00:56:53;;;;;;;13.27;10.53;;;4.70;99.90;;;;;;6262430;22;20463;-84
2021/10/30 00:59:20;;;;;;;11.87;9.83;;;4.70;99.90;;;;;;6261237;22;20424;-85
2021/10/30 01:01:55;;;;;;;12.90;10.13;;;4.80;99.90;;;;;;6261983;22;20907;-87
2021/10/30 01:04:20;;;;;;;13.70;10.80;;;4.80;99.90;;;;;;6286710;22;20877;-85
2021/10/30 01:06:49;;;;;;;11.13;9.83;;;4.80;99.90;;;;;;6264383;22;20477;-85
2021/10/30 01:09:17;;;;;;;15.37;10.90;;;4.80;99.90;;;;;;6261759;22;20223;-85
2021/10/30 01:11:45;;;;;;;13.27;11.07;;;4.70;99.90;;;;;;6262682;22;20889;-85
2021/10/30 01:14:11;;;;;;;13.83;10.10;;;4.70;99.90;;;;;;6261005;22;20491;-84
2021/10/30 01:16:38;;;;;;;12.77;10.43;;;4.70;99.90;;;;;;6265345;22;20392;-85
2021/10/30 01:19:05;;;;;;;13.47;10.77;;;4.70;99.90;;;;;;6263861;22;20488;-85
2021/10/30 01:21:33;;;;;;;13.50;10.53;;;4.70;99.90;;;;;;6262771;22;20400;-85
2021/10/30 01:24:00;;;;;;;12.63;10.43;;;4.70;99.90;;;;;;6261342;22;20809;-85
2021/10/30 01:26:26;;;;;;;13.37;10.50;;;4.90;99.90;;;;;;6262066;22;20502;-85
2021/10/30 01:28:52;;;;;;;12.33;11.03;;;4.80;99.90;;;;;;6261807;22;20580;-85
2021/10/30 01:31:22;;;;;;;14.27;11.90;;;4.80;99.90;;;;;;6261016;22;20395;-85
2021/10/30 01:33:49;;;;;;;14.17;11.30;;;4.70;99.90;;;;;;6261030;22;20708;-85
2021/10/30 01:36:17;;;;;;;12.37;11.07;;;4.60;99.90;;;;;;6263859;22;20467;-84
2021/10/30 01:38:43;;;;;;;15.47;11.60;;;4.60;99.90;;;;;;6262876;22;20423;-85
2021/10/30 01:41:12;;;;;;;12.00;10.60;;;4.60;99.90;;;;;;6263004;22;20482;-85
2021/10/30 01:43:38;;;;;;;14.47;11.90;;;4.50;99.90;;;;;;6262273;22;20405;-85
2021/10/30 01:46:05;;;;;;;14.30;11.53;;;4.40;99.90;;;;;;6262061;22;20508;-85
2021/10/30 01:48:35;;;;;;;15.27;11.10;;;4.30;99.90;;;;;;6262615;22;20443;-85
2021/10/30 01:51:02;;;;;;;13.70;11.40;;;4.40;99.90;;;;;;6262203;22;20408;-85
2021/10/30 01:53:28;;;;;;;13.87;10.97;;;4.30;99.90;;;;;;6265191;22;20425;-85
2021/10/30 01:55:54;;;;;;;13.30;9.67;;;4.40;99.90;;;;;;6262609;22;20414;-85
2021/10/30 01:58:21;;;;;;;12.93;10.83;;;4.40;99.90;;;;;;6264312;22;20934;-85
2021/10/30 02:00:49;;;;;;;15.60;11.43;;;4.40;99.90;;;;;;6264686;22;20190;-85
2021/10/30 02:03:15;;;;;;;13.60;10.60;;;4.20;99.90;;;;;;6267578;22;20398;-85
2021/10/30 02:05:40;;;;;;;11.97;10.07;;;4.20;99.90;;;;;;6263620;22;20444;-85
2021/10/30 02:08:06;;;;;;;13.20;11.73;;;4.30;99.90;;;;;;6264790;22;20567;-84
2021/10/30 02:10:32;;;;;;;13.70;10.73;;;4.30;99.90;;;;;;6263589;22;20185;-85
2021/10/30 02:12:58;;;;;;;11.53;10.37;;;4.30;99.90;;;;;;6264659;22;20188;-85
2021/10/30 02:15:24;;;;;;;12.90;11.60;;;4.40;99.90;;;;;;6260633;22;20166;-85
2021/10/30 02:17:53;;;;;;;15.20;11.57;;;4.40;99.90;;;;;;6266054;22;20392;-85
2021/10/30 02:20:19;;;;;;;13.03;10.43;;;4.40;99.90;;;;;;6264408;22;20474;-85
2021/10/30 02:22:51;;;;;;;12.53;10.40;;;4.40;99.90;;;;;;6264144;22;20403;-85
2021/10/30 02:25:40;;;;;;;12.73;10.47;;;4.30;99.90;;;;;;6263961;22;20887;-85
2021/10/30 02:28:05;;;;;;;15.00;10.20;;;4.20;99.90;;;;;;6261625;22;20835;-85
2021/10/30 02:30:31;;;;;;;14.70;10.67;;;4.10;99.90;;;;;;6263884;22;20411;-85
2021/10/30 02:32:57;;;;;;;14.00;11.07;;;4.10;99.90;;;;;;6262673;22;20604;-86
2021/10/30 02:35:25;;;;;;;12.40;10.13;;;4.10;99.90;;;;;;6263307;22;20198;-85
2021/10/30 02:37:51;;;;;;;12.93;11.57;;;4.10;99.90;;;;;;6262924;22;20172;-85
2021/10/30 02:40:17;;;;;;;12.53;10.90;;;4.00;99.90;;;;;;6264138;22;20884;-86
2021/10/30 02:42:57;;;;;;;10.33;9.23;;;3.90;99.90;;;;;;6263710;22;20860;-85
2021/10/30 02:45:22;;;;;;;11.50;10.30;;;3.90;99.90;;;;;;6262149;22;21019;-85
2021/10/30 02:47:48;;;;;;;9.93;8.93;;;3.70;99.90;;;;;;6262342;22;20400;-85
2021/10/30 02:50:15;;;;;;;9.30;8.30;;;3.70;99.90;;;;;;6264850;22;20682;-85
2021/10/30 02:52:41;;;;;;;10.30;8.23;;;3.70;99.90;;;;;;6263728;22;20847;-86
2021/10/30 02:55:08;;;;;;;10.07;8.03;;;3.80;99.90;;;;;;6263701;22;20406;-85
2021/10/30 02:57:33;;;;;;;9.60;8.60;;;3.80;99.90;;;;;;6263041;22;20872;-85
2021/10/30 02:59:59;;;;;;;11.47;9.07;;;3.70;99.90;;;;;;6263517;22;20413;-85
2021/10/30 03:02:25;;;;;;;11.33;9.27;;;3.50;99.90;;;;;;6263680;22;20241;-85
2021/10/30 03:04:51;;;;;;;10.40;9.40;;;3.50;99.90;;;;;;6263604;22;20405;-84
2021/10/30 03:07:18;;;;;;;11.33;10.00;;;3.50;99.90;;;;;;6268421;22;20225;-84
2021/10/30 03:09:49;;;;;;;11.50;10.30;;;3.40;99.90;;;;;;6261677;22;20206;-84
2021/10/30 03:12:15;;;;;;;12.47;10.27;;;3.50;99.90;;;;;;6263799;22;20393;-84
2021/10/30 03:14:40;;;;;;;9.80;8.80;;;3.60;99.90;;;;;;6265555;22;20469;-84
2021/10/30 03:17:06;;;;;;;11.60;9.80;;;3.60;99.90;;;;;;6264048;22;20198;-85
2021/10/30 03:19:32;;;;;;;11.17;8.93;;;3.70;99.90;;;;;;6263050;22;20187;-86
2021/10/30 03:21:58;;;;;;;10.70;9.17;;;3.70;99.90;;;;;;6264020;22;20172;-85
2021/10/30 03:24:24;;;;;;;9.27;8.37;;;3.60;99.90;;;;;;6263383;22;20426;-85
2021/10/30 03:26:50;;;;;;;9.60;8.60;;;3.60;99.90;;;;;;6266173;22;20763;-87
2021/10/30 03:29:16;;;;;;;10.33;9.33;;;3.60;99.90;;;;;;6264086;22;20204;-84
2021/10/30 03:31:43;;;;;;;11.90;9.27;;;3.60;99.90;;;;;;6263803;22;20792;-84
2021/10/30 03:34:09;;;;;;;11.13;9.90;;;3.80;99.90;;;;;;6262520;22;20727;-84
2021/10/30 03:36:34;;;;;;;10.97;9.80;;;3.90;99.90;;;;;;6264133;22;20391;-86
2021/10/30 03:39:00;;;;;;;11.47;9.73;;;4.00;99.90;;;;;;6264562;22;20198;-86
2021/10/30 03:41:26;;;;;;;10.10;8.43;;;4.10;99.90;;;;;;6261757;22;20400;-86
2021/10/30 03:43:52;;;;;;;11.47;10.13;;;4.10;99.90;;;;;;6261621;22;20248;-86
2021/10/30 03:46:18;;;;;;;10.93;9.80;;;3.90;99.90;;;;;;6262503;22;20449;-86
2021/10/30 03:48:43;;;;;;;10.60;9.60;;;3.90;99.90;;;;;;6261375;22;20198;-86
2021/10/30 03:51:09;;;;;;;10.00;9.00;;;3.80;99.90;;;;;;6263960;22;20169;-86
2021/10/30 03:53:34;;;;;;;9.73;8.73;;;3.80;99.90;;;;;;6263519;22;20724;-86
2021/10/30 03:56:00;;;;;;;9.80;8.90;;;3.80;99.90;;;;;;6262201;22;20487;-86
2021/10/30 03:58:26;;;;;;;9.30;8.40;;;3.80;99.90;;;;;;6258872;22;20173;-86
2021/10/30 04:00:52;;;;;;;10.87;8.40;;;3.80;99.90;;;;;;6262739;22;20164;-86
2021/10/30 04:03:18;;;;;;;10.93;9.37;;;3.70;99.90;;;;;;6262226;22;20175;-86
2021/10/30 04:05:43;;;;;;;10.03;8.83;;;3.80;99.90;;;;;;6261518;22;20385;-86
2021/10/30 04:08:21;;;;;;;16.53;8.57;;;3.70;99.90;;;;;;6262014;22;20433;-87
2021/10/30 04:11:03;;;;;;;11.83;9.37;;;3.70;99.90;;;;;;6262086;22;20184;-86
2021/10/30 04:13:29;;;;;;;11.30;9.40;;;3.60;99.90;;;;;;6262017;22;20950;-86
2021/10/30 04:15:54;;;;;;;9.30;8.40;;;3.60;99.90;;;;;;6261902;22;20202;-86
2021/10/30 04:18:20;;;;;;;10.60;8.73;;;3.70;99.90;;;;;;6262144;22;20237;-86
2021/10/30 04:20:46;;;;;;;9.23;7.93;;;3.60;99.90;;;;;;6263107;22;20175;-86
2021/10/30 04:23:11;;;;;;;8.87;8.07;;;3.40;99.90;;;;;;6261505;22;20155;-86
2021/10/30 04:25:37;;;;;;;9.70;8.43;;;3.30;99.90;;;;;;6261444;22;20496;-86
2021/10/30 04:28:03;;;;;;;11.30;8.87;;;3.20;99.90;;;;;;6263147;22;20191;-85
2021/10/30 04:30:28;;;;;;;8.50;7.60;;;3.30;99.90;;;;;;6262083;22;20177;-86
2021/10/30 04:32:54;;;;;;;9.20;7.77;;;3.20;99.90;;;;;;6263395;22;20284;-86
2021/10/30 04:35:20;;;;;;;9.83;8.70;;;3.20;99.90;;;;;;6265369;22;20172;-85
2021/10/30 04:37:46;;;;;;;11.40;10.30;;;3.30;99.90;;;;;;6268340;22;20152;-86
2021/10/30 04:40:11;;;;;;;10.50;9.40;;;3.20;99.90;;;;;;6263248;22;20166;-87
2021/10/30 04:42:37;;;;;;;11.70;9.10;;;3.20;99.90;;;;;;6262613;22;20162;-86
2021/10/30 04:45:08;;;;;;;12.33;9.83;;;3.20;99.90;;;;;;6265809;22;20166;-86
2021/10/30 04:47:36;;;;;;;12.70;10.47;;;3.10;99.90;;;;;;6263664;22;20393;-86
2021/10/30 04:50:02;;;;;;;13.53;10.50;;;3.10;99.90;;;;;;6262253;22;20225;-86
2021/10/30 04:52:28;;;;;;;11.47;10.17;;;3.20;99.90;;;;;;6262701;22;20393;-86
2021/10/30 04:55:01;;;;;;;11.50;10.30;;;3.30;99.90;;;;;;6261444;22;20401;-86
2021/10/30 04:57:27;;;;;;;12.77;10.20;;;3.30;99.90;;;;;;6261956;22;20398;-86
2021/10/30 04:59:56;;;;;;;11.63;10.10;;;3.30;99.90;;;;;;6262276;22;20400;-86
2021/10/30 05:02:21;;;;;;;9.83;8.67;;;3.40;99.90;;;;;;6261964;22;20166;-86
2021/10/30 05:04:50;;;;;;;10.43;9.43;;;3.30;99.90;;;;;;6261136;22;20420;-86
2021/10/30 05:07:16;;;;;;;11.63;10.37;;;3.30;99.90;;;;;;6263287;22;20254;-86
2021/10/30 05:09:59;;;;;;;12.87;10.33;;;3.30;99.90;;;;;;6262828;22;21006;-85
2021/10/30 05:12:25;;;;;;;12.70;10.73;;;3.20;99.90;;;;;;6261141;22;20170;-86
2021/10/30 05:14:53;;;;;;;16.50;10.30;;;3.20;99.90;;;;;;6263336;22;20393;-86
2021/10/30 05:17:27;;;;;;;12.33;10.40;;;3.30;99.90;;;;;;6263041;22;20381;-87
2021/10/30 05:19:52;;;;;;;13.30;10.47;;;3.20;99.90;;;;;;6259851;22;20406;-87
2021/10/30 05:22:18;;;;;;;11.10;9.57;;;2.90;99.90;;;;;;6263656;22;20512;-87
2021/10/30 05:24:45;;;;;;;12.57;10.30;;;2.90;99.90;;;;;;6265559;22;20159;-87
2021/10/30 05:27:10;;;;;;;12.40;9.70;;;2.90;99.90;;;;;;6267348;22;20603;-87
2021/10/30 05:29:36;;;;;;;13.50;10.47;;;2.90;99.90;;;;;;6266119;22;20987;-87
2021/10/30 05:32:02;;;;;;;11.47;10.23;;;2.90;99.90;;;;;;6264282;22;20158;-87
2021/10/30 05:34:28;;;;;;;12.17;9.60;;;3.00;99.90;;;;;;6263809;22;20488;-85
2021/10/30 05:36:54;;;;;;;16.40;9.87;;;3.10;99.90;;;;;;6264244;22;20169;-86
2021/10/30 05:39:22;;;;;;;10.60;9.47;;;3.20;99.90;;;;;;6262264;22;20802;-85
2021/10/30 05:41:48;;;;;;;13.03;10.03;;;3.10;99.90;;;;;;6267120;22;20393;-86
2021/10/30 05:44:15;;;;;;;11.53;10.33;;;3.10;99.90;;;;;;6261945;22;20450;-86
2021/10/30 05:46:41;;;;;;;12.43;10.10;;;3.00;99.90;;;;;;6263288;22;20169;-86
2021/10/30 05:49:07;;;;;;;11.53;10.33;;;3.00;99.90;;;;;;6263439;22;20875;-86
2021/10/30 05:51:34;;;;;;;10.70;9.63;;;3.00;99.90;;;;;;6262929;22;20421;-86
2021/10/30 05:54:04;;;;;;;11.37;10.10;;;3.00;99.90;;;;;;6264851;22;20385;-86
2021/10/30 05:56:29;;;;;;;10.17;9.10;;;2.90;99.90;;;;;;6238251;22;20746;-86
2021/10/30 05:58:55;;;;;;;10.00;9.00;;;2.80;99.90;;;;;;6263515;22;20918;-86
2021/10/30 06:01:22;;;;;;;13.90;10.77;;;2.70;99.90;;;;;;6264894;22;20166;-86
2021/10/30 06:03:48;;;;;;;11.67;9.90;;;2.70;99.90;;;;;;6268180;22;20341;-86
2021/10/30 06:06:13;;;;;;;10.57;9.30;;;2.60;99.90;;;;;;6270162;22;20407;-86
2021/10/30 06:08:39;;;;;;;11.20;9.97;;;2.70;99.90;;;;;;6266337;22;20745;-86
2021/10/30 06:11:05;;;;;;;10.70;9.60;;;2.70;99.90;;;;;;6263441;22;20205;-86
2021/10/30 06:13:31;;;;;;;13.00;11.33;;;2.50;99.90;;;;;;6263537;22;20539;-85
2021/10/30 06:15:56;;;;;;;11.93;9.80;;;2.50;99.90;;;;;;6261678;22;20381;-86
2021/10/30 06:18:22;;;;;;;12.87;10.00;;;2.60;99.90;;;;;;6262313;22;20162;-86
2021/10/30 06:20:51;;;;;;;10.63;9.13;;;2.50;99.90;;;;;;6262969;22;20232;-86
2021/10/30 06:23:17;;;;;;;11.47;9.00;;;2.50;99.90;;;;;;6230656;23;20402;-85
2021/10/30 06:25:45;;;;;;;13.10;10.00;;;2.50;99.90;;;;;;6231748;22;20780;-85
2021/10/30 06:28:11;;;;;;;11.57;9.37;;;2.50;99.90;;;;;;6225092;23;20961;-84
2021/10/30 06:30:37;;;;;;;11.83;8.97;;;2.50;99.90;;;;;;6234845;23;20406;-84
2021/10/30 06:33:04;;;;;;;12.93;10.70;;;2.60;99.90;;;;;;6232843;23;20905;-85
2021/10/30 06:36:00;;;;;;;12.23;10.93;;;2.70;99.90;;;;;;6232460;22;20163;-85
2021/10/30 06:38:25;;;;;;;15.80;11.43;;;2.70;99.90;;;;;;6231660;23;20552;-85
2021/10/30 06:40:51;;;;;;;15.53;11.37;;;2.80;99.90;;;;;;6233138;23;20421;-85
2021/10/30 06:43:17;;;;;;;14.87;12.13;;;3.10;99.90;;;;;;6233110;23;20163;-84
2021/10/30 06:45:42;;;;;;;15.07;13.17;;;3.20;99.90;;;;;;6229918;23;20224;-85
2021/10/30 06:48:08;;;;;;;17.00;14.40;;;3.30;99.90;;;;;;6230784;23;20202;-84
2021/10/30 06:50:34;;;;;;;16.07;13.93;;;3.40;99.90;;;;;;6229538;23;20166;-85
2021/10/30 06:52:59;;;;;;;17.70;15.30;;;3.60;99.90;;;;;;6236364;23;20269;-85
2021/10/30 06:55:25;;;;;;;16.63;13.73;;;3.70;99.90;;;;;;6232478;23;20159;-86
2021/10/30 06:57:52;;;;;;;17.47;14.33;;;3.80;99.90;;;;;;6231745;23;20155;-85
2021/10/30 07:00:18;;;;;;;16.30;14.60;;;3.90;99.90;;;;;;6231336;23;20716;-86
2021/10/30 07:02:47;;;;;;;20.80;14.27;;;4.20;99.90;;;;;;6236138;23;20426;-86
2021/10/30 07:05:13;;;;;;;16.20;12.97;;;4.40;99.90;;;;;;6236771;23;20472;-87
2021/10/30 07:07:39;;;;;;;24.33;14.50;;;4.60;99.90;;;;;;6234569;23;20390;-87
2021/10/30 07:10:05;;;;;;;21.03;15.60;;;4.50;99.90;;;;;;6236277;23;20501;-87
2021/10/30 07:12:33;;;;;;;18.30;13.90;;;4.40;99.90;;;;;;6236910;23;20198;-88
2021/10/30 07:15:14;;;;;;;15.17;12.43;;;4.40;99.90;;;;;;6232095;23;20407;-86
2021/10/30 07:17:43;;;;;;;20.80;15.97;;;4.50;99.90;;;;;;6234677;23;20608;-85
2021/10/30 07:20:18;;;;;;;21.07;16.00;;;4.80;99.90;;;;;;6232425;23;20414;-87
2021/10/30 07:22:49;;;;;;;26.73;17.97;;;5.30;99.90;;;;;;6231996;23;20400;-87
2021/10/30 07:25:17;;;;;;;22.37;16.80;;;5.40;99.90;;;;;;6233040;23;20163;-89
2021/10/30 07:27:43;;;;;;;20.17;15.53;;;5.60;99.90;;;;;;6233696;23;20796;-85
2021/10/30 07:30:11;;;;;;;17.40;13.53;;;5.90;99.90;;;;;;6233081;23;20417;-87
2021/10/30 07:32:37;;;;;;;14.53;11.33;;;6.20;99.90;;;;;;6232681;23;20936;-88
2021/10/30 07:35:05;;;;;;;14.60;10.73;;;6.50;99.90;;;;;;6236192;23;20463;-86
2021/10/30 07:37:31;;;;;;;14.60;10.90;;;6.70;99.90;;;;;;6240992;23;20212;-85
2021/10/30 07:39:58;;;;;;;14.13;10.50;;;6.80;99.90;;;;;;6234692;23;20990;-89
2021/10/30 07:42:24;;;;;;;13.40;10.73;;;6.90;99.90;;;;;;6232745;23;20386;-88
2021/10/30 07:44:51;;;;;;;12.83;11.07;;;7.10;99.90;;;;;;6230371;23;20393;-88
2021/10/30 07:47:21;;;;;;;13.57;11.40;;;7.40;99.90;;;;;;6232691;23;20398;-87
2021/10/30 07:49:47;;;;;;;16.27;12.93;;;7.50;99.90;;;;;;6232161;23;20540;-89
2021/10/30 07:52:13;;;;;;;17.20;12.73;;;7.40;99.90;;;;;;6205080;23;20946;-86
2021/10/30 07:54:39;;;;;;;58.83;34.53;;;7.50;99.90;;;;;;6232977;23;20195;-87
2021/10/30 07:57:06;;;;;;;18.03;13.70;;;7.50;99.90;;;;;;6231316;23;20875;-87
2021/10/30 07:59:32;;;;;;;16.00;11.23;;;7.60;99.90;;;;;;6232313;23;20395;-89
2021/10/30 08:01:59;;;;;;;16.70;11.40;;;7.70;99.90;;;;;;6232406;23;20430;-93
2021/10/30 08:04:58;;;;;;;14.00;11.90;;;7.90;99.90;;;;;;6236513;23;20173;-92
2021/10/30 08:10:04;;;;;;;14.10;12.17;;;8.20;99.90;;;;;;6241879;22;20490;-96
2021/10/30 08:12:30;;;;;;;12.73;11.10;;;8.50;99.90;;;;;;6241094;23;20405;-94
2021/10/30 08:15:08;;;;;;;12.40;11.07;;;8.90;99.90;;;;;;6240274;23;20494;-94
2021/10/30 08:20:14;;;;;;;15.77;12.30;;;9.10;99.90;;;;;;6239250;22;20396;-91
2021/10/30 08:22:43;;;;;;;13.43;12.00;;;9.40;99.90;;;;;;6236504;23;20773;-92
2021/10/30 08:25:14;;;;;;;14.17;12.67;;;9.70;99.90;;;;;;6234736;23;20425;-91
2021/10/30 08:27:42;;;;;;;16.20;12.13;;;10.20;99.90;;;;;;6208981;23;20463;-91
2021/10/30 08:30:09;;;;;;;14.70;11.50;;;10.10;99.90;;;;;;6235050;23;20945;-91
2021/10/30 08:32:35;;;;;;;13.50;11.37;;;10.10;99.90;;;;;;6235551;23;20397;-91
2021/10/30 08:35:07;;;;;;;12.30;10.97;;;9.90;99.90;;;;;;6236482;22;20902;-92
2021/10/30 08:37:33;;;;;;;14.90;11.90;;;9.70;99.90;;;;;;6236252;23;20402;-92
2021/10/30 08:39:59;;;;;;;15.90;11.90;;;9.40;99.90;;;;;;6236712;23;20955;-90
2021/10/30 08:42:38;;;;;;;12.27;10.40;;;9.40;99.90;;;;;;6241997;22;20724;-91
2021/10/30 08:45:06;;;;;;;14.47;11.40;;;9.40;99.90;;;;;;6235026;23;20408;-92
2021/10/30 08:47:32;;;;;;;14.27;12.00;;;9.60;99.90;;;;;;6234526;23;20437;-92
2021/10/30 08:49:59;;;;;;;15.00;13.20;;;9.70;99.90;;;;;;6234710;23;20441;-89
2021/10/30 08:52:35;;;;;;;;;;;;;;;;;;;;;
2021/10/30 08:55:18;;;;;;;14.17;12.07;;;10.00;99.90;;;;;;6239158;23;20472;-92
2021/10/30 08:57:47;;;;;;;12.90;10.73;;;10.00;99.90;;;;;;6235162;23;20397;-91
2021/10/30 09:00:23;;;;;;;14.40;12.20;;;10.20;99.90;;;;;;6210840;23;20801;-93
2021/10/30 09:03:01;;;;;;;13.93;11.97;;;10.40;99.90;;;;;;6235470;23;20413;-91
2021/10/30 09:05:28;;;;;;;13.40;12.00;;;10.60;99.90;;;;;;6239976;23;20398;-90
2021/10/30 09:08:12;;;;;;;14.00;11.20;;;10.60;99.90;;;;;;6240154;23;20397;-92
2021/10/30 09:10:55;;;;;;;14.40;11.33;;;10.60;99.90;;;;;;6210139;23;20988;-92
2021/10/30 09:13:25;;;;;;;15.63;12.70;;;10.40;99.90;;;;;;6236616;23;20727;-92
2021/10/30 09:15:56;;;;;;;16.67;12.40;;;10.40;99.90;;;;;;6235956;23;20397;-91
2021/10/30 09:18:31;;;;;;;13.70;12.23;;;10.40;99.90;;;;;;6235955;23;20571;-91
2021/10/30 09:21:15;;;;;;;13.30;11.93;;;10.50;99.90;;;;;;6236597;23;20386;-91
2021/10/30 09:24:25;;;;;;;15.40;12.60;;;10.50;99.90;;;;;;6236398;23;20397;-91
2021/10/30 09:26:51;;;;;;;19.40;13.47;;;10.10;99.90;;;;;;6224412;22;20482;-92
2021/10/30 09:29:18;;;;;;;15.53;12.83;;;9.70;99.90;;;;;;6237471;23;20437;-93
2021/10/30 09:31:43;;;;;;;16.93;13.20;;;9.60;99.90;;;;;;6235904;23;20422;-94
2021/10/30 09:34:09;;;;;;;13.50;12.10;;;9.60;99.90;;;;;;6237591;23;20397;-91
2021/10/30 09:36:43;;;;;;;13.73;12.00;;;9.70;99.90;;;;;;6237782;23;20173;-93
2021/10/30 09:39:12;;;;;;;15.30;12.70;;;9.70;99.90;;;;;;6236324;23;20208;-93
2021/10/30 09:41:45;;;;;;;16.70;14.27;;;9.70;99.90;;;;;;6236503;23;20393;-94
2021/10/30 09:44:19;;;;;;;16.33;14.60;;;9.40;99.90;;;;;;6237137;23;20756;-93
2021/10/30 09:46:44;;;;;;;16.20;12.63;;;9.30;99.90;;;;;;6238568;23;20460;-94
2021/10/30 09:49:13;;;;;;;14.33;12.40;;;9.40;99.90;;;;;;6237804;23;20445;-94
2021/10/30 09:51:39;;;;;;;15.17;13.30;;;9.50;99.90;;;;;;6238588;23;20216;-93
2021/10/30 09:54:06;;;;;;;13.50;12.07;;;9.50;99.90;;;;;;6232191;23;20770;-92
2021/10/30 09:56:42;;;;;;;14.00;11.77;;;9.40;99.90;;;;;;6238120;23;20401;-93
2021/10/30 09:59:15;;;;;;;14.53;12.93;;;9.50;99.90;;;;;;6238339;23;20404;-93
2021/10/30 10:01:44;;;;;;;14.93;13.43;;;9.50;99.90;;;;;;6235426;23;20514;-93
2021/10/30 10:04:12;;;;;;;16.37;14.00;;;9.50;99.90;;;;;;6231936;23;20382;-91
2021/10/30 10:06:44;;;;;;;15.07;13.53;;;9.30;99.90;;;;;;6232920;23;20461;-89
2021/10/30 10:09:20;;;;;;;14.30;12.83;;;9.10;99.90;;;;;;6232756;23;20730;-90
2021/10/30 10:11:50;;;;;;;15.57;13.97;;;9.10;99.90;;;;;;6232039;23;20401;-89
2021/10/30 10:14:18;;;;;;;20.37;16.63;;;9.10;99.90;;;;;;6231964;23;20408;-90
2021/10/30 10:16:51;;;;;;;18.67;16.70;;;9.20;99.90;;;;;;6230217;23;20391;-88
2021/10/30 10:19:18;;;;;;;17.50;12.40;;;9.30;99.90;;;;;;6232364;23;20408;-88
2021/10/30 10:21:45;;;;;;;15.17;13.63;;;9.30;99.90;;;;;;6232950;23;20885;-88
2021/10/30 10:24:19;;;;;;;15.30;12.73;;;9.20;99.90;;;;;;6229910;23;20785;-85
2021/10/30 10:27:01;;;;;;;14.20;12.70;;;9.10;99.90;;;;;;6232209;23;20401;-85
2021/10/30 10:29:40;;;;;;;13.13;11.67;;;9.10;99.90;;;;;;6230613;23;20441;-85
2021/10/30 10:32:26;;;;;;;14.73;13.23;;;9.20;99.90;;;;;;6229310;23;20452;-86
2021/10/30 10:35:02;;;;;;;13.37;12.00;;;9.00;99.90;;;;;;6232024;23;20390;-86
2021/10/30 10:37:27;;;;;;;15.00;13.37;;;9.00;99.90;;;;;;6234219;23;20716;-86
2021/10/30 10:39:57;;;;;;;14.67;12.83;;;8.80;99.90;;;;;;6229692;23;20403;-86
2021/10/30 10:42:51;;;;;;;15.53;12.00;;;8.70;99.90;;;;;;6229170;23;20147;-90
2021/10/30 10:45:19;;;;;;;14.17;12.67;;;8.70;99.90;;;;;;6234059;23;20811;-90
2021/10/30 10:47:49;;;;;;;15.50;13.77;;;8.80;99.90;;;;;;6231344;23;20892;-92
2021/10/30 10:50:29;;;;;;;14.90;13.43;;;8.80;99.90;;;;;;6236608;23;20889;-92
2021/10/30 10:55:28;;;;;;;17.30;13.40;;;8.80;99.90;;;;;;6235148;23;20386;-91
2021/10/30 10:58:05;;;;;;;15.10;13.50;;;8.90;99.90;;;;;;6232703;23;20481;-91
2021/10/30 11:00:32;;;;;;;14.03;12.63;;;8.80;99.90;;;;;;6232884;23;20447;-87
2021/10/30 11:03:01;;;;;;;15.77;12.90;;;8.80;99.90;;;;;;6232345;23;20784;-86
2021/10/30 11:05:29;;;;;;;15.00;13.40;;;8.80;99.90;;;;;;6230976;23;20409;-86
2021/10/30 11:07:55;;;;;;;15.57;13.97;;;8.80;99.90;;;;;;6231232;23;20405;-86
2021/10/30 11:10:27;;;;;;;15.60;14.00;;;8.80;99.90;;;;;;6231037;23;20898;-85
2021/10/30 11:13:01;;;;;;;14.20;12.57;;;8.90;99.90;;;;;;6230778;23;20173;-88
2021/10/30 11:15:44;;;;;;;14.40;12.90;;;9.00;99.90;;;;;;6233371;23;20408;-89
2021/10/30 11:18:22;;;;;;;14.60;12.50;;;9.10;99.90;;;;;;6231677;23;20744;-91
2021/10/30 11:21:12;;;;;;;15.77;12.97;;;9.10;99.90;;;;;;6233160;23;20396;-93
2021/10/30 11:23:50;;;;;;;17.53;12.43;;;9.00;99.90;;;;;;6232669;23;20469;-88
2021/10/30 11:26:27;;;;;;;12.17;10.90;;;9.00;99.90;;;;;;6232282;23;20484;-89
2021/10/30 11:29:13;;;;;;;11.70;10.50;;;8.80;99.90;;;;;;6232262;23;20445;-89
2021/10/30 11:32:10;;;;;;;12.40;11.10;;;8.70;99.90;;;;;;6231441;23;20398;-92
2021/10/30 11:34:35;;;;;;;13.30;11.90;;;8.60;99.90;;;;;;6232784;23;20433;-90
2021/10/30 11:37:01;;;;;;;12.30;11.00;;;8.50;99.90;;;;;;6230165;23;20404;-91
2021/10/30 11:39:36;;;;;;;13.10;11.80;;;8.50;99.90;;;;;;6232567;23;20166;-91
2021/10/30 11:42:06;;;;;;;11.67;10.57;;;8.50;99.90;;;;;;6233130;23;20173;-91
2021/10/30 11:44:56;;;;;;;13.70;12.30;;;8.50;99.90;;;;;;6233433;23;20425;-91
2021/10/30 11:47:26;;;;;;;13.13;11.37;;;8.40;99.90;;;;;;6233330;23;20890;-90
2021/10/30 11:49:52;;;;;;;12.67;11.30;;;8.50;99.90;;;;;;6233617;23;20441;-90
2021/10/30 11:52:18;;;;;;;15.07;12.80;;;8.40;99.90;;;;;;6233428;23;20402;-91
2021/10/30 11:54:44;;;;;;;13.23;11.83;;;8.50;99.90;;;;;;6233771;23;20437;-91
2021/10/30 11:57:11;;;;;;;13.97;12.50;;;8.50;99.90;;;;;;6234105;23;20769;-90
2021/10/30 11:59:44;;;;;;;15.10;12.53;;;8.50;99.90;;;;;;6233084;23;20169;-90
2021/10/30 12:02:14;;;;;;;14.30;12.10;;;8.40;99.90;;;;;;6234147;23;20454;-90
2021/10/30 12:04:39;;;;;;;11.53;10.43;;;8.40;99.90;;;;;;6236129;23;20409;-89
2021/10/30 12:07:05;;;;;;;15.53;12.43;;;8.40;99.90;;;;;;6239952;23;20729;-90
2021/10/30 12:09:35;;;;;;;16.43;14.70;;;8.40;99.90;;;;;;6233000;23;20190;-90
2021/10/30 12:12:11;;;;;;;22.50;19.83;;;8.30;99.90;;;;;;6232317;23;20498;-90
2021/10/30 12:14:48;;;;;;;17.97;14.77;;;8.10;99.90;;;;;;6234073;23;20399;-90
2021/10/30 12:17:23;;;;;;;19.70;14.63;;;8.20;99.90;;;;;;6232695;23;20450;-89
2021/10/30 12:19:55;;;;;;;17.83;15.70;;;8.20;99.90;;;;;;6234037;23;20419;-90
2021/10/30 12:22:23;;;;;;;16.73;14.97;;;8.40;99.90;;;;;;6232281;23;20389;-91
2021/10/30 12:25:10;;;;;;;15.10;13.40;;;8.60;99.90;;;;;;6233889;23;20405;-90
2021/10/30 12:27:48;;;;;;;13.20;11.90;;;8.70;99.90;;;;;;6233048;23;20392;-89
2021/10/30 12:30:19;;;;;;;14.17;12.13;;;8.70;99.90;;;;;;6233407;23;20449;-89
2021/10/30 12:32:46;;;;;;;13.80;12.20;;;8.60;99.90;;;;;;6234200;23;20453;-90
2021/10/30 12:35:22;;;;;;;13.73;12.20;;;8.60;99.90;;;;;;6232658;23;20397;-91
2021/10/30 12:37:49;;;;;;;12.37;11.00;;;8.80;99.90;;;;;;6233729;23;20439;-91
2021/10/30 12:40:16;;;;;;;12.53;10.60;;;8.90;99.90;;;;;;6233636;23;20395;-90
2021/10/30 12:42:42;;;;;;;13.67;11.20;;;9.00;99.90;;;;;;6236442;23;20486;-90
2021/10/30 12:45:09;;;;;;;13.83;12.30;;;9.10;99.90;;;;;;6233037;23;20917;-89
2021/10/30 12:47:35;;;;;;;14.63;13.13;;;9.00;99.90;;;;;;6233937;23;20728;-90
2021/10/30 12:50:07;;;;;;;13.80;12.40;;;9.00;99.90;;;;;;6233113;23;20471;-90
2021/10/30 12:52:39;;;;;;;12.67;11.53;;;9.10;99.90;;;;;;6233111;23;20386;-91
2021/10/30 12:55:21;;;;;;;12.57;11.20;;;9.00;99.90;;;;;;6235596;23;20666;-90
2021/10/30 12:58:01;;;;;;;14.03;12.63;;;9.10;99.90;;;;;;6235325;22;20385;-90